West Fairview, Pennsylvania
Current Conditions -  °F | °C
As of 7:56 PM on Thursday 27 Nov 2014 (Local Time) from KCXY Reporting Station
Broken Clouds Broken Clouds  
Wind Chill: 32°   Ceiling: 8500
Heat Index: 32°   Visibility: 7mi
Dew Point: 30°   Wind: 3mph
Humidity: 92%   Direction: 240°WSW
Pressure: 30.11"   Gusts: NA
Location:  40.2947°N, 76.9833°W
Report Text: KCXY 280056Z AUTO 24003KT 7SM BKN085 00/M01 A3011 RMK AO2 SLP201 T00001011
Loading
Personal Weather Stations






























Interactive Weather Map New forecast layout! Learn more

10-Day Weather Forecast

Advertisements
Track Severe Weather on mobile